createdAt,value
2023-02-08T07:28:23.691Z,980.18
2023-02-08T07:29:29.207Z,980.23
2023-02-08T07:30:34.670Z,980.23
2023-02-08T07:31:40.004Z,980.25
2023-02-08T07:32:45.544Z,980.22
2023-02-08T07:33:51.030Z,980.21
2023-02-08T07:34:56.467Z,980.14
2023-02-08T07:36:01.861Z,980.12
2023-02-08T07:37:07.198Z,980.06
2023-02-08T07:38:12.681Z,980.06
2023-02-08T07:39:18.220Z,980.13
2023-02-08T07:40:23.766Z,980.11
2023-02-08T07:41:29.352Z,980.05
2023-02-08T07:42:34.893Z,980.20
2023-02-08T07:43:40.415Z,980.15
2023-02-08T07:44:45.883Z,980.08
2023-02-08T07:45:51.437Z,980.10
2023-02-08T07:46:56.871Z,980.08
2023-02-08T07:48:02.286Z,980.09
2023-02-08T07:49:07.690Z,980.06
2023-02-08T07:50:13.069Z,980.09
2023-02-08T07:51:18.432Z,980.04
2023-02-08T07:52:23.779Z,980.04
2023-02-08T07:53:29.108Z,980.08
2023-02-08T07:54:34.671Z,980.12
2023-02-08T07:55:40.127Z,980.07
2023-02-08T07:56:45.612Z,980.10
2023-02-08T07:57:51.188Z,980.09
2023-02-08T07:58:56.749Z,980.11
2023-02-08T08:00:02.279Z,980.09
2023-02-08T08:01:21.409Z,980.11
2023-02-08T08:02:19.272Z,980.06
2023-02-08T08:03:24.748Z,980.05
2023-02-08T08:04:30.331Z,980.07
2023-02-08T08:05:35.905Z,980.09
2023-02-08T08:06:41.369Z,980.07
2023-02-08T08:07:46.839Z,980.00
2023-02-08T08:08:52.304Z,980.09
2023-02-08T08:09:57.768Z,980.03
2023-02-08T08:11:03.927Z,980.07
2023-02-08T08:12:09.395Z,980.01
2023-02-08T08:13:14.806Z,980.02
2023-02-08T08:14:20.222Z,979.94
2023-02-08T08:15:25.602Z,979.94
2023-02-08T08:16:31.027Z,979.99
2023-02-08T08:17:36.408Z,979.95
2023-02-08T08:18:41.786Z,979.89
2023-02-08T08:19:47.106Z,979.99
2023-02-08T08:20:52.438Z,979.89
2023-02-08T08:21:57.779Z,979.91
2023-02-08T08:23:03.215Z,979.93
2023-02-08T08:24:08.670Z,979.96
2023-02-08T08:25:14.130Z,979.81
2023-02-08T08:26:19.543Z,979.93
2023-02-08T08:27:24.875Z,979.94
2023-02-08T08:28:30.510Z,979.96
2023-02-08T08:29:35.958Z,979.97
2023-02-08T08:30:41.657Z,979.92
2023-02-08T08:31:47.402Z,979.91
2023-02-08T08:32:52.913Z,979.91
2023-02-08T08:33:58.481Z,979.91
2023-02-08T08:35:04.061Z,979.86
2023-02-08T08:36:09.539Z,979.81
2023-02-08T08:37:15.027Z,979.84
2023-02-08T08:38:20.502Z,979.83
2023-02-08T08:39:25.971Z,979.88
2023-02-08T08:40:31.427Z,979.88
2023-02-08T08:41:36.878Z,979.85
2023-02-08T08:42:42.337Z,979.84
2023-02-08T08:43:47.749Z,979.85
2023-02-08T08:44:53.224Z,979.84
2023-02-08T08:45:58.630Z,979.75
2023-02-08T08:47:04.022Z,979.82
2023-02-08T08:48:09.353Z,979.80
2023-02-08T08:49:14.724Z,979.80
2023-02-08T08:50:20.075Z,979.84
2023-02-08T08:51:25.442Z,979.75
2023-02-08T08:52:30.792Z,979.79
2023-02-08T08:53:36.230Z,979.79
2023-02-08T08:54:41.727Z,979.80
2023-02-08T08:55:47.293Z,979.84
2023-02-08T08:56:52.840Z,979.78
2023-02-08T08:57:58.411Z,979.72
2023-02-08T08:59:03.958Z,979.80
2023-02-08T09:00:09.485Z,979.70
2023-02-08T09:01:15.009Z,979.79
2023-02-08T09:02:20.787Z,979.76
2023-02-08T09:03:26.286Z,979.79
2023-02-08T09:04:31.795Z,979.69
2023-02-08T09:05:37.301Z,979.66
2023-02-08T09:06:42.768Z,979.67
2023-02-08T09:07:48.290Z,979.73
2023-02-08T09:08:53.708Z,979.73
2023-02-08T09:09:59.131Z,979.71
2023-02-08T09:11:04.526Z,979.70
2023-02-08T09:12:09.963Z,979.68
2023-02-08T09:13:15.395Z,979.60
2023-02-08T09:14:20.766Z,979.65
2023-02-08T09:15:26.161Z,979.63
2023-02-08T09:16:31.587Z,979.55
2023-02-08T09:17:36.943Z,979.60
2023-02-08T09:18:42.285Z,979.63
2023-02-08T09:19:47.614Z,979.61
2023-02-08T09:20:52.976Z,979.66
